createdAt,value
2015-09-12T00:00:57.035Z,15
2015-09-12T00:06:00.904Z,14.8
2015-09-12T00:11:02.694Z,14.8
2015-09-12T00:16:04.797Z,15.1
2015-09-12T00:21:06.745Z,14.8
2015-09-12T00:26:10.020Z,14.8
2015-09-12T00:31:12.108Z,14.8
2015-09-12T00:36:14.914Z,14.8
2015-09-12T00:41:17.160Z,14.6
2015-09-12T00:46:19.310Z,14.6
2015-09-12T00:51:22.216Z,14.5
2015-09-12T00:56:23.895Z,14.5
2015-09-12T01:01:26.311Z,14.5
2015-09-12T01:06:28.571Z,14.6
2015-09-12T01:11:30.815Z,14.6
2015-09-12T01:16:33.357Z,14.8
2015-09-12T01:22:24.103Z,14.8
2015-09-12T01:27:26.752Z,14.7
2015-09-12T01:32:28.737Z,14.6
2015-09-12T01:37:30.926Z,14.7
2015-09-12T01:42:33.277Z,14.6
2015-09-12T01:47:35.552Z,14.6
2015-09-12T01:52:38.203Z,14.6
2015-09-12T01:57:40.450Z,14.6
2015-09-12T02:02:42.367Z,14.6
2015-09-12T02:07:46.595Z,14.7
2015-09-12T02:12:47.416Z,14.6
2015-09-12T02:17:49.238Z,14.6
2015-09-12T02:22:51.608Z,14.7
2015-09-12T02:27:54.164Z,14.6
2015-09-12T02:32:56.628Z,14.6
2015-09-12T02:37:58.871Z,14.6
2015-09-12T02:43:01.944Z,14.5
2015-09-12T02:48:03.517Z,14.5
2015-09-12T02:53:05.821Z,14.6
2015-09-12T02:58:08.011Z,14.6
2015-09-12T03:03:10.302Z,14.6
2015-09-12T03:08:12.140Z,14.6
2015-09-12T03:13:14.447Z,14.6
2015-09-12T03:18:17.019Z,14.6
2015-09-12T03:23:19.467Z,14.7
2015-09-12T03:28:21.710Z,14.6
2015-09-12T03:33:24.031Z,14.6
2015-09-12T03:38:25.854Z,14.7
2015-09-12T03:43:28.552Z,14.6
2015-09-12T03:48:30.874Z,14.7
2015-09-12T03:53:32.916Z,14.7
2015-09-12T03:58:34.987Z,14.6
2015-09-12T04:03:37.810Z,14.6
2015-09-12T04:08:40.024Z,14.6
2015-09-12T04:13:41.874Z,14.6
2015-09-12T04:18:44.728Z,14.6
2015-09-12T04:23:46.941Z,14.6
2015-09-12T04:28:49.311Z,14.6
2015-09-12T04:33:51.554Z,14.6
2015-09-12T04:38:53.439Z,14.7
2015-09-12T04:43:56.184Z,14.8
2015-09-12T04:48:59.912Z,14.6
2015-09-12T04:54:00.670Z,14.6
2015-09-12T04:59:03.040Z,14.5
2015-09-12T05:04:05.438Z,14.7
2015-09-12T05:09:07.754Z,14.6
2015-09-12T05:14:10.045Z,14.6
2015-09-12T05:19:12.607Z,14.6
2015-09-12T05:24:14.322Z,14.6
2015-09-12T05:29:17.254Z,14.7
2015-09-12T05:34:18.871Z,14.6
2015-09-12T05:39:21.382Z,14.8
2015-09-12T05:44:23.641Z,14.8
2015-09-12T05:49:25.932Z,14.8
2015-09-12T05:54:28.161Z,14.9
2015-09-12T05:59:30.437Z,14.9
2015-09-12T06:04:32.697Z,14.9
2015-09-12T06:09:34.550Z,14.9
2015-09-12T06:14:37.245Z,14.9
2015-09-12T06:19:39.224Z,15
2015-09-12T06:24:42.827Z,15.1
2015-09-12T06:29:45.134Z,15.4
2015-09-12T06:34:48.238Z,15.6
2015-09-12T06:39:50.436Z,15.9
2015-09-12T06:44:52.805Z,16.1
2015-09-12T06:49:54.549Z,16.4
2015-09-12T06:54:56.871Z,16.4
2015-09-12T06:59:59.285Z,16.3
2015-09-12T07:05:02.843Z,16.1
2015-09-12T07:10:05.509Z,16.5
2015-09-12T07:15:08.285Z,16.6
2015-09-12T07:20:10.091Z,16.5
2015-09-12T07:25:12.835Z,16.8
2015-09-12T07:30:15.579Z,16.8
2015-09-12T07:35:16.964Z,16.6
2015-09-12T07:40:20.693Z,16.6
2015-09-12T07:45:21.779Z,16.8
2015-09-12T07:50:24.336Z,17.1
2015-09-12T07:55:26.659Z,17.2
2015-09-12T08:00:28.872Z,17.3
2015-09-12T08:05:31.194Z,17.6
2015-09-12T08:10:33.453Z,17.6
2015-09-12T08:15:35.699Z,17.8
2015-09-12T08:20:37.551Z,18
2015-09-12T08:25:39.856Z,18.3
2015-09-12T08:30:42.460Z,18.6
2015-09-12T08:35:45.750Z,18.9
2015-09-12T08:40:47.979Z,19.2
2015-09-12T08:45:51.381Z,19.2
2015-09-12T08:50:53.562Z,19.4
2015-09-12T08:55:55.853Z,19.4
2015-09-12T09:00:57.629Z,19.6
2015-09-12T09:05:59.951Z,19.9
2015-09-12T09:11:02.634Z,19.8
2015-09-12T09:16:05.578Z,20.1
2015-09-12T09:21:07.165Z,20.1
2015-09-12T09:26:09.458Z,20.2
2015-09-12T09:31:11.732Z,20.6
2015-09-12T09:36:14.056Z,20.8
2015-09-12T09:41:16.972Z,21
2015-09-12T09:46:18.825Z,21.1
2015-09-12T09:51:20.413Z,21.3
2015-09-12T09:56:23.251Z,21.8
2015-09-12T10:01:25.417Z,21.4
2015-09-12T10:06:27.674Z,21.8
2015-09-12T10:11:29.966Z,22.2
2015-09-12T10:16:32.211Z,22.3
2015-09-12T10:21:34.595Z,22.6
2015-09-12T10:26:36.854Z,22.5
2015-09-12T10:31:39.381Z,22.6
2015-09-12T10:36:41.297Z,22.6
2015-09-12T10:41:43.650Z,22.6
2015-09-12T10:46:47.722Z,22.6
2015-09-12T10:51:49.155Z,22.5
2015-09-12T10:56:51.493Z,22.6
2015-09-12T11:01:53.815Z,23
2015-09-12T11:06:57.091Z,22.9
2015-09-12T11:11:59.397Z,23.2
2015-09-12T11:17:01.298Z,22.9
2015-09-12T11:22:03.479Z,23.2
2015-09-12T11:27:06.113Z,23.5
2015-09-12T11:32:08.686Z,23.3
2015-09-12T11:37:10.818Z,23.7
2015-09-12T11:42:13.110Z,24
2015-09-12T11:47:15.370Z,23.9
2015-09-12T11:52:17.692Z,23.9
2015-09-12T11:57:20.030Z,24.2
2015-09-12T12:02:21.759Z,24.2
2015-09-12T12:07:24.065Z,24.2
2015-09-12T12:12:26.655Z,24.1
2015-09-12T12:17:29.070Z,24.2
2015-09-12T12:22:31.752Z,24.3
2015-09-12T12:27:33.995Z,24.5
2015-09-12T12:32:37.069Z,24.5
2015-09-12T12:37:38.906Z,24.4
2015-09-12T12:42:41.150Z,24.5
2015-09-12T12:47:43.394Z,24.7
2015-09-12T12:52:45.731Z,24.9
2015-09-12T12:57:48.711Z,24.9
2015-09-12T13:02:51.781Z,25.1
2015-09-12T13:07:53.603Z,25.2
2015-09-12T13:12:55.723Z,25.1
2015-09-12T13:17:57.982Z,25.5
2015-09-12T13:23:00.321Z,25.8
2015-09-12T13:28:02.533Z,25.4
2015-09-12T13:33:04.809Z,25.3
2015-09-12T13:38:07.053Z,25.3
2015-09-12T13:43:09.234Z,25.3
2015-09-12T13:48:11.979Z,25.3
2015-09-12T13:53:14.613Z,25.4
2015-09-12T13:58:17.015Z,25.4
2015-09-12T14:03:19.393Z,25.5
2015-09-12T14:08:22.151Z,25.4
2015-09-12T14:13:24.105Z,25.3
2015-09-12T14:18:26.366Z,25.4
2015-09-12T14:23:28.696Z,25.4
2015-09-12T14:28:30.989Z,25.4
2015-09-12T14:33:32.749Z,25.5
2015-09-12T14:38:35.024Z,25.4
2015-09-12T14:43:39.252Z,25.5
2015-09-12T14:48:40.013Z,25.4
2015-09-12T14:53:43.148Z,25.4
2015-09-12T14:58:45.377Z,25.2
2015-09-12T15:03:47.823Z,25.1
2015-09-12T15:08:50.052Z,25
2015-09-12T15:13:52.921Z,25.1
2015-09-12T15:18:54.087Z,24.9
2015-09-12T15:23:56.832Z,24.9
2015-09-12T15:28:59.388Z,24.7
2015-09-12T15:34:01.349Z,24.6
2015-09-12T15:39:03.625Z,24.5
2015-09-12T15:44:07.712Z,24.3
2015-09-12T15:49:10.003Z,24.2
2015-09-12T15:54:12.279Z,24.2
2015-09-12T15:59:14.117Z,24.2
2015-09-12T16:04:17.299Z,24.2
2015-09-12T16:09:19.059Z,24.1
2015-09-12T16:14:21.302Z,24.1
2015-09-12T16:19:23.593Z,24
2015-09-12T16:24:27.369Z,24
2015-09-12T16:29:28.144Z,23.9
2015-09-12T16:34:30.404Z,23.8
2015-09-12T16:39:32.695Z,23.8
2015-09-12T16:44:34.470Z,23.8
2015-09-12T16:49:37.215Z,23.7
2015-09-12T16:54:39.441Z,23.6
2015-09-12T16:59:41.420Z,23.6
2015-09-12T17:04:44.133Z,23.6
2015-09-12T17:09:46.361Z,23.5
2015-09-12T17:14:48.652Z,23.4
2015-09-12T17:19:50.928Z,23.2
2015-09-12T17:24:54.203Z,23.4
2015-09-12T17:29:54.978Z,23.3
2015-09-12T17:34:57.910Z,23.2
2015-09-12T17:40:00.437Z,23.2
2015-09-12T17:45:02.368Z,23.1
2015-09-12T17:50:05.033Z,23.1
2015-09-12T17:55:08.632Z,23
2015-09-12T18:00:12.750Z,23
2015-09-12T18:05:14.558Z,22.9
2015-09-12T18:10:16.848Z,22.8
2015-09-12T18:15:19.076Z,22.8
2015-09-12T18:20:21.694Z,22.6
2015-09-12T18:25:23.766Z,22.8
2015-09-12T18:30:25.901Z,22.4
2015-09-12T18:35:29.505Z,22.2
2015-09-12T18:40:31.718Z,22.2
2015-09-12T18:45:33.508Z,22.1
2015-09-12T18:50:35.785Z,22.1
2015-09-12T18:55:39.356Z,22.1
2015-09-12T19:00:42.726Z,22
2015-09-12T19:05:44.033Z,22
2015-09-12T19:10:46.324Z,21.9
2015-09-12T19:15:48.599Z,21.8
2015-09-12T19:20:50.875Z,21.8
2015-09-12T19:25:53.166Z,21.9
2015-09-12T19:30:55.426Z,21.8
2015-09-12T19:35:57.214Z,21.8
2015-09-12T19:40:59.507Z,21.7
2015-09-12T19:46:02.281Z,21.7
2015-09-12T19:51:04.511Z,21.7
2015-09-12T19:56:06.864Z,21.6
2015-09-12T20:01:09.185Z,21.6
2015-09-12T20:06:11.430Z,21.6
2015-09-12T20:11:13.690Z,21.6
2015-09-12T20:16:16.864Z,21.5
2015-09-12T20:21:17.913Z,21.5
2015-09-12T20:26:21.251Z,21.4
2015-09-12T20:31:23.001Z,21.4
2015-09-12T20:36:24.699Z,21.4
2015-09-12T20:41:26.959Z,21.3
2015-09-12T20:46:29.531Z,21.3
2015-09-12T20:51:31.556Z,21.2
2015-09-12T20:56:34.142Z,21.2
2015-09-12T21:01:37.417Z,21.2
2015-09-12T21:06:39.224Z,21.2
2015-09-12T21:11:42.625Z,21.2
2015-09-12T21:16:44.072Z,21.2
2015-09-12T21:21:47.536Z,21.1
2015-09-12T21:26:49.107Z,21
2015-09-12T21:31:51.836Z,21
2015-09-12T21:36:54.111Z,21.1
2015-09-12T21:41:56.450Z,21
2015-09-12T21:46:58.756Z,21.1
2015-09-12T21:52:01.432Z,21.1
2015-09-12T21:57:02.911Z,21.1
2015-09-12T22:02:05.406Z,21
2015-09-12T22:07:08.555Z,21
2015-09-12T22:12:10.190Z,20.9
2015-09-12T22:17:12.433Z,20.9
2015-09-12T22:22:14.786Z,20.9
2015-09-12T22:27:17.062Z,20.9
2015-09-12T22:32:19.322Z,20.8
2015-09-12T22:37:21.098Z,20.8
2015-09-12T22:42:23.403Z,20.9
2015-09-12T22:47:26.101Z,20.8
2015-09-12T22:52:28.344Z,20.8
2015-09-12T22:57:30.683Z,20.7
2015-09-12T23:02:32.989Z,20.7
2015-09-12T23:07:36.319Z,20.6
2015-09-12T23:12:39.870Z,20.6
2015-09-12T23:17:41.716Z,20.7
2015-09-12T23:22:43.970Z,20.7
2015-09-12T23:27:46.426Z,20.5
2015-09-12T23:32:48.967Z,20.5
2015-09-12T23:37:51.291Z,20.4
2015-09-12T23:42:53.536Z,20.4
2015-09-12T23:47:55.811Z,20.4
2015-09-12T23:52:58.029Z,20.4
2015-09-12T23:58:00.319Z,20.4
